Airways and Terminal Forecast

Significant Meteorological Information

WSPH31 RPLL 240223 
RPHI SIGMET A01 VALID 240225/240625 RPLL-
RPHI MANILA FIR EMBD TS OBS WI N0906 E12221 - N0606 E11950 - N0730 E11730 - N0903 E11542 - N1042 E12001 - N0906 E12221 TOP FL530 MOV W 15KT NC=

 

Terminal Aerodrome Forecast

TAF RPLL

 

232300Z 2400/2506 26007KT 9999 FEW023 SCT100 BKN300 TX33/2406Z TN27/2421Z TEMPO 2400/2406 FEW022CB SCT023 BKN100 TEMPO 2408/2414 7000 TSRA SCT022CB OVC090=

TAF RPVM

232300Z 2400/2506 25008KT 9999 FEW020 BKN100 TEMPO 2400/2406 23012KT 9000 -SHRA FEW018CB BKN100 TEMPO 2406/2412 22012KT 9000 -TSRA FEW018CB FEW020 BKN100=

TAF RPLC

232300Z 2400/2506 22008KT 7000 SCT020 BKN300 TX34/2406Z TN25/2421Z TEMPO 2400/2406 16008KT 6000 -TSRA FEW015CB SCT020 BKN100=

TAF RPLB

232300Z 2400/2424 11006KT 9999 FEW020 BKN300 TX32/2406Z TN24/2422Z TEMPO 2400/2406 26012KT 8000 -TSRA FEW018CB SCT020 BKN080=

TAF RPLI

232300Z 2400/2424 13005KT 9999 FEW018 BKN280 TEMPO 2403/2409 33008KT TEMPO 2409/2415 -TSRA SCT017CB BKN090=

TAF RPVP

232300Z 2400/2424 27005KT 9999 FEW019 SCT080 BKN240 TEMPO 2400/2403 FEW019 SCT240 TEMPO 2406/2412 18006KT 7000 TSRA FEW017CB SCT019 OVC080=

TAF RPVD

232300Z 2400/2424 25006KT 9999 FEW015 SCT070 BKN220 TEMPO 2400/2406 14010KT -SHRA FEW014CB SCT015 OVC070=

TAF RPMR

232300Z 2400/2424 16006KT 9999 FEW018 BKN080 TEMPO 2400/2406 12008KT 8000 -SHRA SCT018 OVC080=

TAF RPMD

232300Z 2400/2424 18006KT 9999 FEW016 SCT090 BKN290 TEMPO 2400/2406 -SHRA SCT016 BKN090 OVC290=

TAF RPMZ

232300Z 2400/2424 25006KT 9999 FEW017 BKN090 TEMPO 2400/2406 25012KT 7000 -TSRA SCT016CB OVC090=


 RPLL FORECAST TAKE-OFF CONDITION

TIME

(UTC)

WIND

(dddffKT)

TEMP

(°C)

QNH

(hPa)

TIME

(UTC)

WIND

(dddffKT)

TEMP

(°C)

QNH

(hPa)

0000

26006KT

28.5

1009.0

0400

26008KT

31.0

1008.0

0100

26006KT

29.5

1009.0

0500

26010KT

31.5

1007.5

0200

26007KT

30.0

1009.0

0600

26011KT

32.0

1007.0

0300

26008KT

30.5

1008.5

0700

26011KT

31.5

1006.5

 

ISSUED AT NAIA AMSS-WD/PAGASA-DOST FOR 2300UTC 23 JULY 2019

 

PREPARED BY:   MPT                                                                                                            

CHECKED BY:    CRSED